sensor_id;sensor_type;location;lat;lon;timestamp;pressure;altitude;pressure_sealevel;temperature;humidity
77537;BME280;67783;51.656;16.106;2023-03-31T00:01:54;100782.09;;;12.47;65.27
77537;BME280;67783;51.656;16.106;2023-03-31T00:04:58;100790.05;;;12.48;65.40
77537;BME280;67783;51.656;16.106;2023-03-31T00:08:06;100778.45;;;12.48;66.19
77537;BME280;67783;51.656;16.106;2023-03-31T00:11:10;100779.41;;;12.47;65.39
77537;BME280;67783;51.656;16.106;2023-03-31T00:14:12;100777.83;;;12.44;65.71
77537;BME280;67783;51.656;16.106;2023-03-31T00:17:15;100784.68;;;12.48;65.27
77537;BME280;67783;51.656;16.106;2023-03-31T00:20:17;100780.41;;;12.46;65.48
77537;BME280;67783;51.656;16.106;2023-03-31T00:23:27;100771.59;;;12.44;65.93
77537;BME280;67783;51.656;16.106;2023-03-31T00:26:30;100767.44;;;12.40;65.39
77537;BME280;67783;51.656;16.106;2023-03-31T00:29:32;100770.38;;;12.37;65.65
77537;BME280;67783;51.656;16.106;2023-03-31T00:32:36;100764.25;;;12.35;65.25
77537;BME280;67783;51.656;16.106;2023-03-31T00:35:38;100760.85;;;12.33;65.40
77537;BME280;67783;51.656;16.106;2023-03-31T00:38:47;100757.41;;;12.31;66.54
77537;BME280;67783;51.656;16.106;2023-03-31T00:41:50;100749.59;;;12.28;65.44
77537;BME280;67783;51.656;16.106;2023-03-31T00:48:17;100744.22;;;12.17;66.16
77537;BME280;67783;51.656;16.106;2023-03-31T00:51:21;100749.81;;;12.14;65.65
77537;BME280;67783;51.656;16.106;2023-03-31T00:54:26;100741.39;;;12.07;65.90
77537;BME280;67783;51.656;16.106;2023-03-31T00:57:29;100743.97;;;12.09;65.68
77537;BME280;67783;51.656;16.106;2023-03-31T01:00:33;100735.16;;;12.07;65.83
77537;BME280;67783;51.656;16.106;2023-03-31T01:03:39;100732.58;;;12.05;66.93
77537;BME280;67783;51.656;16.106;2023-03-31T01:10:02;100732.47;;;12.07;65.84
77537;BME280;67783;51.656;16.106;2023-03-31T01:13:06;100727.84;;;12.09;67.03
77537;BME280;67783;51.656;16.106;2023-03-31T01:16:09;100733.95;;;12.11;65.90
77537;BME280;67783;51.656;16.106;2023-03-31T01:19:19;100727.59;;;12.12;66.12
77537;BME280;67783;51.656;16.106;2023-03-31T01:39:08;100726.75;;;12.33;65.41
77537;BME280;67783;51.656;16.106;2023-03-31T01:52:13;100704.38;;;12.44;65.03
77537;BME280;67783;51.656;16.106;2023-03-31T01:55:23;100696.30;;;12.44;65.07
77537;BME280;67783;51.656;16.106;2023-03-31T01:58:33;100696.91;;;12.47;65.32
77537;BME280;67783;51.656;16.106;2023-03-31T02:05:01;100692.77;;;12.55;64.76
77537;BME280;67783;51.656;16.106;2023-03-31T02:08:19;100688.22;;;12.55;64.90
77537;BME280;67783;51.656;16.106;2023-03-31T02:11:31;100687.41;;;12.55;65.25
77537;BME280;67783;51.656;16.106;2023-03-31T02:14:38;100683.48;;;12.59;64.59
77537;BME280;67783;51.656;16.106;2023-03-31T02:17:41;100688.00;;;12.58;64.77
77537;BME280;67783;51.656;16.106;2023-03-31T02:20:57;100676.38;;;12.58;65.10
77537;BME280;67783;51.656;16.106;2023-03-31T02:24:04;100671.60;;;12.61;64.46
77537;BME280;67783;51.656;16.106;2023-03-31T02:30:29;100673.43;;;12.61;64.74
77537;BME280;67783;51.656;16.106;2023-03-31T02:33:34;100664.24;;;12.63;64.32
77537;BME280;67783;51.656;16.106;2023-03-31T02:36:36;100654.48;;;12.62;64.36
77537;BME280;67783;51.656;16.106;2023-03-31T02:39:39;100643.48;;;12.65;64.22
77537;BME280;67783;51.656;16.106;2023-03-31T02:42:42;100646.16;;;12.65;64.21
77537;BME280;67783;51.656;16.106;2023-03-31T02:45:49;100639.93;;;12.65;64.58
77537;BME280;67783;51.656;16.106;2023-03-31T02:48:54;100636.12;;;12.67;64.17
77537;BME280;67783;51.656;16.106;2023-03-31T02:52:10;100630.14;;;12.64;64.20
77537;BME280;67783;51.656;16.106;2023-03-31T03:01:57;100620.77;;;12.47;64.34
77537;BME280;67783;51.656;16.106;2023-03-31T03:11:33;100622.41;;;12.27;64.46
77537;BME280;67783;51.656;16.106;2023-03-31T03:14:50;100613.99;;;12.21;64.85
77537;BME280;67783;51.656;16.106;2023-03-31T03:18:01;100621.58;;;12.16;65.38
77537;BME280;67783;51.656;16.106;2023-03-31T03:21:04;100609.36;;;12.12;64.74
77537;BME280;67783;51.656;16.106;2023-03-31T03:24:06;100593.02;;;11.92;64.93
77537;BME280;67783;51.656;16.106;2023-03-31T03:27:08;100622.91;;;12.10;64.61
77537;BME280;67783;51.656;16.106;2023-03-31T03:30:12;100633.80;;;12.09;64.73
77537;BME280;67783;51.656;16.106;2023-03-31T03:33:21;100613.16;;;12.09;65.46
77537;BME280;67783;51.656;16.106;2023-03-31T03:36:25;100614.85;;;12.10;64.73
77537;BME280;67783;51.656;16.106;2023-03-31T03:39:27;100618.39;;;12.11;64.89
77537;BME280;67783;51.656;16.106;2023-03-31T03:42:28;100604.70;;;12.14;64.59
77537;BME280;67783;51.656;16.106;2023-03-31T03:45:30;100604.59;;;12.15;64.66
77537;BME280;67783;51.656;16.106;2023-03-31T03:48:41;100601.79;;;12.17;65.38
77537;BME280;67783;51.656;16.106;2023-03-31T03:51:43;100594.33;;;12.20;64.56
77537;BME280;67783;51.656;16.106;2023-03-31T03:54:45;100591.63;;;12.20;64.81
77537;BME280;67783;51.656;16.106;2023-03-31T03:57:46;100584.29;;;12.22;64.57
77537;BME280;67783;51.656;16.106;2023-03-31T04:00:48;100585.14;;;12.23;64.64
77537;BME280;67783;51.656;16.106;2023-03-31T04:03:50;100583.91;;;12.27;64.42
77537;BME280;67783;51.656;16.106;2023-03-31T04:06:52;100585.74;;;12.26;64.47
77537;BME280;67783;51.656;16.106;2023-03-31T04:09:57;100580.38;;;12.26;65.16
77537;BME280;67783;51.656;16.106;2023-03-31T04:12:58;100581.01;;;12.30;64.53
77537;BME280;67783;51.656;16.106;2023-03-31T04:16:00;100577.56;;;12.28;64.58
77537;BME280;67783;51.656;16.106;2023-03-31T04:19:02;100575.63;;;12.30;64.27
77537;BME280;67783;51.656;16.106;2023-03-31T04:22:05;100524.13;;;12.02;64.42
77537;BME280;67783;51.656;16.106;2023-03-31T04:25:17;100560.32;;;12.30;64.67
77537;BME280;67783;51.656;16.106;2023-03-31T04:28:22;100569.13;;;12.32;64.23
77537;BME280;67783;51.656;16.106;2023-03-31T04:31:26;100567.42;;;12.31;64.27
77537;BME280;67783;51.656;16.106;2023-03-31T04:34:30;100566.34;;;12.34;64.10
77537;BME280;67783;51.656;16.106;2023-03-31T04:37:35;100564.72;;;12.31;64.15
77537;BME280;67783;51.656;16.106;2023-03-31T04:40:40;100569.40;;;12.29;64.49
77537;BME280;67783;51.656;16.106;2023-03-31T04:43:42;100556.07;;;12.28;64.04
77537;BME280;67783;51.656;16.106;2023-03-31T04:46:43;100551.80;;;12.25;64.19
77537;BME280;67783;51.656;16.106;2023-03-31T04:49:45;100554.61;;;12.24;64.11
77537;BME280;67783;51.656;16.106;2023-03-31T04:52:47;100549.50;;;12.21;64.24
77537;BME280;67783;51.656;16.106;2023-03-31T04:55:49;100554.73;;;12.22;64.06
77537;BME280;67783;51.656;16.106;2023-03-31T04:58:51;100552.05;;;12.22;64.13
77537;BME280;67783;51.656;16.106;2023-03-31T05:01:56;100557.19;;;12.25;64.54
77537;BME280;67783;51.656;16.106;2023-03-31T05:04:57;100550.69;;;12.28;64.01
77537;BME280;67783;51.656;16.106;2023-03-31T05:07:59;100537.99;;;12.30;64.19
77537;BME280;67783;51.656;16.106;2023-03-31T05:11:02;100541.02;;;12.36;63.89
77537;BME280;67783;51.656;16.106;2023-03-31T05:14:04;100544.55;;;12.37;63.97
77537;BME280;67783;51.656;16.106;2023-03-31T05:17:16;100539.19;;;12.37;64.35
77537;BME280;67783;51.656;16.106;2023-03-31T05:20:19;100536.98;;;12.42;63.81
77537;BME280;67783;51.656;16.106;2023-03-31T05:23:20;100541.49;;;12.41;63.93
77537;BME280;67783;51.656;16.106;2023-03-31T05:26:23;100533.05;;;12.46;63.68
77537;BME280;67783;51.656;16.106;2023-03-31T05:29:25;100539.41;;;12.45;63.72
77537;BME280;67783;51.656;16.106;2023-03-31T05:32:37;100533.75;;;12.48;63.91
77537;BME280;67783;51.656;16.106;2023-03-31T05:35:38;100545.49;;;12.47;63.58
77537;BME280;67783;51.656;16.106;2023-03-31T05:38:41;100533.28;;;12.43;63.76
77537;BME280;67783;51.656;16.106;2023-03-31T05:41:42;100533.05;;;12.46;63.61
77537;BME280;67783;51.656;16.106;2023-03-31T05:44:44;100523.27;;;12.45;63.59
77537;BME280;67783;51.656;16.106;2023-03-31T05:47:46;100515.20;;;12.45;63.51
77537;BME280;67783;51.656;16.106;2023-03-31T05:50:48;100518.60;;;12.47;63.53
77537;BME280;67783;51.656;16.106;2023-03-31T05:53:53;100516.65;;;12.49;63.80
77537;BME280;67783;51.656;16.106;2023-03-31T05:56:54;100512.73;;;12.53;63.39
77537;BME280;67783;51.656;16.106;2023-03-31T05:59:56;100514.44;;;12.54;63.49
77537;BME280;67783;51.656;16.106;2023-03-31T06:02:58;100515.63;;;12.61;63.25
77537;BME280;67783;51.656;16.106;2023-03-31T06:06:00;100509.98;;;12.64;63.27
77537;BME280;67783;51.656;16.106;2023-03-31T06:09:13;100500.55;;;12.70;63.23
77537;BME280;67783;51.656;16.106;2023-03-31T06:12:15;100499.04;;;12.77;63.04
77537;BME280;67783;51.656;16.106;2023-03-31T06:15:16;100492.41;;;12.81;62.96
77537;BME280;67783;51.656;16.106;2023-03-31T06:18:18;100491.75;;;12.88;62.82
77537;BME280;67783;51.656;16.106;2023-03-31T06:21:20;100468.59;;;12.76;62.73
77537;BME280;67783;51.656;16.106;2023-03-31T06:24:22;100489.13;;;12.98;62.62
77537;BME280;67783;51.656;16.106;2023-03-31T06:27:24;100489.01;;;13.00;62.55
77537;BME280;67783;51.656;16.106;2023-03-31T06:30:29;100480.40;;;13.06;62.48
77537;BME280;67783;51.656;16.106;2023-03-31T06:33:31;100472.80;;;13.11;62.42
77537;BME280;67783;51.656;16.106;2023-03-31T06:36:33;100475.80;;;13.17;62.32
77537;BME280;67783;51.656;16.106;2023-03-31T06:39:36;100464.52;;;13.23;62.22
77537;BME280;67783;51.656;16.106;2023-03-31T06:42:37;100456.73;;;13.30;62.11
77537;BME280;67783;51.656;16.106;2023-03-31T06:45:51;100447.86;;;13.39;61.79
77537;BME280;67783;51.656;16.106;2023-03-31T06:48:53;100445.91;;;13.51;61.91
77537;BME280;67783;51.656;16.106;2023-03-31T06:51:55;100452.47;;;13.58;61.58
77537;BME280;67783;51.656;16.106;2023-03-31T06:54:57;100448.12;;;13.66;61.60
77537;BME280;67783;51.656;16.106;2023-03-31T06:58:00;100443.87;;;13.73;61.40
77537;BME280;67783;51.656;16.106;2023-03-31T07:01:10;100447.13;;;13.77;60.83
77537;BME280;67783;51.656;16.106;2023-03-31T07:04:12;100439.33;;;13.83;61.28
77537;BME280;67783;51.656;16.106;2023-03-31T07:07:13;100447.17;;;13.86;60.97
77537;BME280;67783;51.656;16.106;2023-03-31T07:10:16;100438.22;;;13.96;61.12
77537;BME280;67783;51.656;16.106;2023-03-31T07:13:18;100435.54;;;14.05;60.94
77537;BME280;67783;51.656;16.106;2023-03-31T07:16:30;100442.21;;;14.20;60.23
77537;BME280;67783;51.656;16.106;2023-03-31T07:19:32;100440.52;;;14.29;60.60
77537;BME280;67783;51.656;16.106;2023-03-31T07:22:46;100434.02;;;14.41;60.39
77537;BME280;67783;51.656;16.106;2023-03-31T07:25:57;100441.98;;;14.52;59.20
77537;BME280;67783;51.656;16.106;2023-03-31T07:29:02;100430.59;;;14.68;60.01
77537;BME280;67783;51.656;16.106;2023-03-31T07:32:04;100426.60;;;14.82;59.62
77537;BME280;67783;51.656;16.106;2023-03-31T07:35:08;100426.42;;;14.93;59.63
77537;BME280;67783;51.656;16.106;2023-03-31T07:38:11;100429.97;;;15.03;59.42
77537;BME280;67783;51.656;16.106;2023-03-31T07:41:19;100431.62;;;15.13;58.14
77537;BME280;67783;51.656;16.106;2023-03-31T07:44:21;100420.80;;;15.23;59.09
77537;BME280;67783;51.656;16.106;2023-03-31T07:47:23;100411.94;;;15.31;58.52
77537;BME280;67783;51.656;16.106;2023-03-31T07:50:25;100411.91;;;15.40;58.76
77537;BME280;67783;51.656;16.106;2023-03-31T07:53:27;100427.19;;;15.49;58.23
77537;BME280;67783;51.656;16.106;2023-03-31T07:56:38;100416.51;;;15.57;57.28
77537;BME280;67783;51.656;16.106;2023-03-31T07:59:40;100411.06;;;15.67;57.94
77537;BME280;67783;51.656;16.106;2023-03-31T08:02:43;100412.02;;;15.76;57.56
77537;BME280;67783;51.656;16.106;2023-03-31T08:05:50;100406.69;;;15.84;57.83
77537;BME280;67783;51.656;16.106;2023-03-31T08:08:52;100399.84;;;15.89;57.55
77537;BME280;67783;51.656;16.106;2023-03-31T08:11:59;100369.85;;;15.83;56.88
77537;BME280;67783;51.656;16.106;2023-03-31T08:15:01;100392.03;;;16.04;57.21
77537;BME280;67783;51.656;16.106;2023-03-31T08:18:03;100385.16;;;16.09;56.72
77537;BME280;67783;51.656;16.106;2023-03-31T08:21:06;100373.10;;;16.22;56.92
77537;BME280;67783;51.656;16.106;2023-03-31T08:24:09;100372.47;;;16.28;56.54
77537;BME280;67783;51.656;16.106;2023-03-31T08:27:19;100368.68;;;16.38;55.33
77537;BME280;67783;51.656;16.106;2023-03-31T08:30:21;100373.16;;;16.47;56.51
77537;BME280;67783;51.656;16.106;2023-03-31T08:33:23;100328.10;;;16.38;55.91
77537;BME280;67783;51.656;16.106;2023-03-31T08:36:25;100356.60;;;16.68;56.22
77537;BME280;67783;51.656;16.106;2023-03-31T08:39:27;100354.46;;;16.80;55.69
77537;BME280;67783;51.656;16.106;2023-03-31T08:45:45;100349.18;;;17.04;55.28
77537;BME280;67783;51.656;16.106;2023-03-31T08:48:51;100301.35;;;16.87;52.97
77537;BME280;67783;51.656;16.106;2023-03-31T08:52:00;100341.48;;;17.25;55.02
77537;BME280;67783;51.656;16.106;2023-03-31T08:55:06;100337.62;;;17.36;54.61
77537;BME280;67783;51.656;16.106;2023-03-31T09:08:05;100315.68;;;17.55;53.15
77537;BME280;67783;51.656;16.106;2023-03-31T09:15:23;100320.52;;;17.43;53.89
77537;BME280;67783;51.656;16.106;2023-03-31T09:17:45;100318.50;;;17.37;53.83
77537;BME280;67783;51.656;16.106;2023-03-31T09:20:50;100306.80;;;17.37;51.86
77537;BME280;67783;51.656;16.106;2023-03-31T09:27:11;100307.34;;;17.48;53.54
77537;BME280;67783;51.656;16.106;2023-03-31T09:30:21;100310.39;;;17.45;50.98
77537;BME280;67783;51.656;16.106;2023-03-31T09:33:30;100302.41;;;17.44;53.41
77537;BME280;67783;51.656;16.106;2023-03-31T09:36:34;100293.11;;;17.38;53.16
77537;BME280;67783;51.656;16.106;2023-03-31T09:39:41;100282.76;;;17.34;51.15
77537;BME280;67783;51.656;16.106;2023-03-31T09:42:45;100285.98;;;17.37;53.52
77537;BME280;67783;51.656;16.106;2023-03-31T09:45:48;100281.08;;;17.41;53.23
77537;BME280;67783;51.656;16.106;2023-03-31T09:55:22;100263.67;;;17.51;52.68
77537;BME280;67783;51.656;16.106;2023-03-31T09:58:25;100270.61;;;17.54;53.37
77537;BME280;67783;51.656;16.106;2023-03-31T10:01:28;100263.83;;;17.50;53.37
77537;BME280;67783;51.656;16.106;2023-03-31T10:04:33;100255.54;;;17.51;52.85
77537;BME280;67783;51.656;16.106;2023-03-31T10:07:35;100254.34;;;17.54;53.77
77537;BME280;67783;51.656;16.106;2023-03-31T10:10:38;100248.77;;;17.56;53.84
77537;BME280;67783;51.656;16.106;2023-03-31T10:13:52;100252.68;;;17.61;53.89
77537;BME280;67783;51.656;16.106;2023-03-31T10:17:03;100246.75;;;17.58;53.71
77537;BME280;67783;51.656;16.106;2023-03-31T10:23:29;100239.48;;;17.58;53.69
77537;BME280;67783;51.656;16.106;2023-03-31T10:26:32;100233.20;;;17.58;53.53
77537;BME280;67783;51.656;16.106;2023-03-31T10:29:37;100227.62;;;17.59;52.58
77537;BME280;67783;51.656;16.106;2023-03-31T10:32:42;100236.92;;;17.65;53.65
77537;BME280;67783;51.656;16.106;2023-03-31T10:35:47;100232.86;;;17.61;53.46
77537;BME280;67783;51.656;16.106;2023-03-31T10:38:52;100227.91;;;17.56;53.69
77537;BME280;67783;51.656;16.106;2023-03-31T10:41:54;100237.73;;;17.49;53.78
77537;BME280;67783;51.656;16.106;2023-03-31T10:51:27;100201.99;;;17.53;54.21
77537;BME280;67783;51.656;16.106;2023-03-31T10:54:31;100200.68;;;17.66;54.09
77537;BME280;67783;51.656;16.106;2023-03-31T10:57:46;100146.78;;;17.54;54.34
77537;BME280;67783;51.656;16.106;2023-03-31T11:01:01;100188.44;;;18.02;54.10
77537;BME280;67783;51.656;16.106;2023-03-31T11:13:57;100161.63;;;18.15;52.98
77537;BME280;67783;51.656;16.106;2023-03-31T11:17:05;100160.45;;;18.18;53.46
77537;BME280;67783;51.656;16.106;2023-03-31T11:20:18;100151.77;;;18.22;53.26
77537;BME280;67783;51.656;16.106;2023-03-31T11:23:32;100121.46;;;18.11;52.76
77537;BME280;67783;51.656;16.106;2023-03-31T11:43:00;100102.16;;;18.44;52.88
77537;BME280;67783;51.656;16.106;2023-03-31T11:49:32;100088.98;;;18.72;51.05
77537;BME280;67783;51.656;16.106;2023-03-31T11:52:49;100061.34;;;18.69;52.16
77537;BME280;67783;51.656;16.106;2023-03-31T11:55:52;100070.43;;;18.84;51.56
77537;BME280;67783;51.656;16.106;2023-03-31T11:58:59;100067.41;;;18.79;50.73
77537;BME280;67783;51.656;16.106;2023-03-31T12:05:20;100052.44;;;18.83;51.65
77537;BME280;67783;51.656;16.106;2023-03-31T12:15:00;100037.59;;;18.71;51.25
77537;BME280;67783;51.656;16.106;2023-03-31T12:21:12;100026.36;;;18.74;51.39
77537;BME280;67783;51.656;16.106;2023-03-31T12:24:14;100007.99;;;18.76;51.19
77537;BME280;67783;51.656;16.106;2023-03-31T12:30:38;100004.58;;;18.82;50.70
77537;BME280;67783;51.656;16.106;2023-03-31T12:40:17;99992.27;;;18.40;51.47
77537;BME280;67783;51.656;16.106;2023-03-31T12:50:02;99990.77;;;18.07;52.19
77537;BME280;67783;51.656;16.106;2023-03-31T12:53:11;99985.74;;;17.96;51.99
77537;BME280;67783;51.656;16.106;2023-03-31T12:56:13;99982.57;;;17.84;52.02
77537;BME280;67783;51.656;16.106;2023-03-31T12:59:26;99973.42;;;17.77;52.26
77537;BME280;67783;51.656;16.106;2023-03-31T13:02:29;99971.60;;;17.70;52.57
77537;BME280;67783;51.656;16.106;2023-03-31T13:05:43;99966.20;;;17.62;53.04
77537;BME280;67783;51.656;16.106;2023-03-31T13:08:59;99958.23;;;17.52;52.86
77537;BME280;67783;51.656;16.106;2023-03-31T13:12:16;99961.99;;;17.51;52.92
77537;BME280;67783;51.656;16.106;2023-03-31T13:15:19;99954.87;;;17.50;53.12
77537;BME280;67783;51.656;16.106;2023-03-31T13:18:22;99949.13;;;17.45;52.85
77537;BME280;67783;51.656;16.106;2023-03-31T13:21:25;99946.27;;;17.38;52.56
77537;BME280;67783;51.656;16.106;2023-03-31T13:24:28;99945.79;;;17.35;52.45
77537;BME280;67783;51.656;16.106;2023-03-31T13:27:32;99940.88;;;17.30;51.90
77537;BME280;67783;51.656;16.106;2023-03-31T13:30:45;99944.27;;;17.24;50.90
77537;BME280;67783;51.656;16.106;2023-03-31T13:33:53;99935.31;;;17.16;51.88
77537;BME280;67783;51.656;16.106;2023-03-31T13:37:08;99933.11;;;17.11;52.28
77537;BME280;67783;51.656;16.106;2023-03-31T13:40:17;99927.55;;;17.04;52.28
77537;BME280;67783;51.656;16.106;2023-03-31T13:46:47;99931.78;;;16.99;52.78
77537;BME280;67783;51.656;16.106;2023-03-31T13:53:27;99926.24;;;16.84;53.73
77537;BME280;67783;51.656;16.106;2023-03-31T13:56:39;99914.90;;;16.81;53.35
77537;BME280;67783;51.656;16.106;2023-03-31T14:09:33;99905.38;;;16.36;54.25
77537;BME280;67783;51.656;16.106;2023-03-31T14:12:36;99900.66;;;16.30;54.65
77537;BME280;67783;51.656;16.106;2023-03-31T14:15:50;99887.64;;;16.26;55.25
77537;BME280;67783;51.656;16.106;2023-03-31T14:22:15;99881.88;;;16.29;54.70
77537;BME280;67783;51.656;16.106;2023-03-31T14:35:24;99875.10;;;16.08;54.87
77537;BME280;67783;51.656;16.106;2023-03-31T14:38:29;99874.95;;;16.02;55.42
77537;BME280;67783;51.656;16.106;2023-03-31T14:41:32;99874.44;;;15.98;55.23
77537;BME280;67783;51.656;16.106;2023-03-31T14:44:38;99868.98;;;15.90;55.58
77537;BME280;67783;51.656;16.106;2023-03-31T14:47:54;99867.30;;;15.81;56.87
77537;BME280;67783;51.656;16.106;2023-03-31T14:50:59;99873.69;;;15.72;56.20
77537;BME280;67783;51.656;16.106;2023-03-31T14:54:01;99864.71;;;15.63;56.48
77537;BME280;67783;51.656;16.106;2023-03-31T14:57:10;99861.13;;;15.55;59.01
77537;BME280;67783;51.656;16.106;2023-03-31T15:03:25;99864.11;;;15.44;57.64
77537;BME280;67783;51.656;16.106;2023-03-31T15:06:36;99872.70;;;15.39;58.91
77537;BME280;67783;51.656;16.106;2023-03-31T15:09:45;99863.23;;;15.35;57.45
77537;BME280;67783;51.656;16.106;2023-03-31T15:12:50;99866.26;;;15.32;57.78
77537;BME280;67783;51.656;16.106;2023-03-31T15:19:21;99860.52;;;15.35;57.71
77537;BME280;67783;51.656;16.106;2023-03-31T15:22:26;99857.13;;;15.33;58.01
77537;BME280;67783;51.656;16.106;2023-03-31T15:25:35;99850.06;;;15.32;59.88
77537;BME280;67783;51.656;16.106;2023-03-31T15:28:49;99831.43;;;15.21;58.03
77537;BME280;67783;51.656;16.106;2023-03-31T15:31:55;99832.16;;;15.31;58.63
77537;BME280;67783;51.656;16.106;2023-03-31T15:34:58;99844.66;;;15.32;60.37
77537;BME280;67783;51.656;16.106;2023-03-31T15:38:05;99846.33;;;15.33;58.42
77537;BME280;67783;51.656;16.106;2023-03-31T15:41:13;99842.93;;;15.23;59.02
77537;BME280;67783;51.656;16.106;2023-03-31T15:47:48;99842.11;;;14.97;59.65
77537;BME280;67783;51.656;16.106;2023-03-31T15:50:51;99839.33;;;14.81;60.01
77537;BME280;67783;51.656;16.106;2023-03-31T15:53:56;99845.35;;;14.74;62.20
77537;BME280;67783;51.656;16.106;2023-03-31T15:56:59;99838.58;;;14.70;60.33
77537;BME280;67783;51.656;16.106;2023-03-31T16:00:03;99841.23;;;14.62;61.13
77537;BME280;67783;51.656;16.106;2023-03-31T16:03:33;99836.16;;;14.59;60.76
77537;BME280;67783;51.656;16.106;2023-03-31T16:09:45;99834.05;;;14.45;61.85
77537;BME280;67783;51.656;16.106;2023-03-31T16:12:55;99832.63;;;14.41;60.91
77537;BME280;67783;51.656;16.106;2023-03-31T16:15:58;99829.17;;;14.31;61.19
77537;BME280;67783;51.656;16.106;2023-03-31T16:19:07;99825.10;;;14.27;62.43
77537;BME280;67783;51.656;16.106;2023-03-31T16:22:23;99827.09;;;14.25;60.72
77537;BME280;67783;51.656;16.106;2023-03-31T16:25:29;99825.57;;;14.22;61.08
77537;BME280;67783;51.656;16.106;2023-03-31T16:28:34;99829.26;;;14.21;63.45
77537;BME280;67783;51.656;16.106;2023-03-31T16:31:38;99826.42;;;14.23;61.18
77537;BME280;67783;51.656;16.106;2023-03-31T16:37:58;99821.88;;;14.23;63.83
77537;BME280;67783;51.656;16.106;2023-03-31T16:41:04;99813.46;;;14.26;61.43
77537;BME280;67783;51.656;16.106;2023-03-31T16:44:07;99808.78;;;14.28;62.06
77537;BME280;67783;51.656;16.106;2023-03-31T16:47:09;99810.83;;;14.34;61.50
77537;BME280;67783;51.656;16.106;2023-03-31T16:50:11;99804.30;;;14.37;61.81
77537;BME280;67783;51.656;16.106;2023-03-31T16:53:24;99793.36;;;14.39;64.16
77537;BME280;67783;51.656;16.106;2023-03-31T16:56:27;99791.20;;;14.42;61.74
77537;BME280;67783;51.656;16.106;2023-03-31T16:59:29;99785.80;;;14.42;62.17
77537;BME280;67783;51.656;16.106;2023-03-31T17:02:31;99784.95;;;14.42;61.75
77537;BME280;67783;51.656;16.106;2023-03-31T17:05:40;99783.42;;;14.39;62.09
77537;BME280;67783;51.656;16.106;2023-03-31T17:08:43;99770.27;;;14.36;63.53
77537;BME280;67783;51.656;16.106;2023-03-31T17:11:45;99780.03;;;14.37;61.95
77537;BME280;67783;51.656;16.106;2023-03-31T17:14:49;99776.77;;;14.33;62.45
77537;BME280;67783;51.656;16.106;2023-03-31T17:17:51;99778.80;;;14.31;62.00
77537;BME280;67783;51.656;16.106;2023-03-31T17:20:54;99771.85;;;14.29;62.14
77537;BME280;67783;51.656;16.106;2023-03-31T17:24:00;99767.79;;;14.25;63.96
77537;BME280;67783;51.656;16.106;2023-03-31T17:27:02;99771.50;;;14.24;62.05
77537;BME280;67783;51.656;16.106;2023-03-31T17:30:05;99770.95;;;14.20;62.39
77537;BME280;67783;51.656;16.106;2023-03-31T17:33:09;99768.43;;;14.19;61.78
77537;BME280;67783;51.656;16.106;2023-03-31T17:36:12;99765.36;;;14.14;62.06
77537;BME280;67783;51.656;16.106;2023-03-31T17:39:20;99763.98;;;14.10;64.14
77537;BME280;67783;51.656;16.106;2023-03-31T17:42:22;99745.05;;;14.02;62.55
77537;BME280;67783;51.656;16.106;2023-03-31T17:45:25;99753.54;;;13.89;63.18
77537;BME280;67783;51.656;16.106;2023-03-31T17:48:27;99760.70;;;13.80;62.83
77537;BME280;67783;51.656;16.106;2023-03-31T17:51:29;99763.46;;;13.71;63.38
77537;BME280;67783;51.656;16.106;2023-03-31T17:54:41;99776.26;;;13.69;65.52
77537;BME280;67783;51.656;16.106;2023-03-31T17:57:45;99779.63;;;13.71;63.22
77537;BME280;67783;51.656;16.106;2023-03-31T18:00:46;99787.88;;;13.69;63.93
77537;BME280;67783;51.656;16.106;2023-03-31T18:03:48;99786.88;;;13.70;63.30
77537;BME280;67783;51.656;16.106;2023-03-31T18:06:50;99797.28;;;13.65;63.84
77537;BME280;67783;51.656;16.106;2023-03-31T18:10:03;99802.13;;;13.62;66.33
77537;BME280;67783;51.656;16.106;2023-03-31T18:13:05;99812.04;;;13.61;63.80
77537;BME280;67783;51.656;16.106;2023-03-31T18:16:08;99814.34;;;13.56;64.68
77537;BME280;67783;51.656;16.106;2023-03-31T18:19:12;99817.49;;;13.52;64.01
77537;BME280;67783;51.656;16.106;2023-03-31T18:22:14;99823.63;;;13.44;64.51
77537;BME280;67783;51.656;16.106;2023-03-31T18:25:22;99823.09;;;13.40;66.94
77537;BME280;67783;51.656;16.106;2023-03-31T18:28:24;99825.78;;;13.40;64.42
77537;BME280;67783;51.656;16.106;2023-03-31T18:31:28;99826.63;;;13.41;65.31
77537;BME280;67783;51.656;16.106;2023-03-31T18:34:30;99825.48;;;13.44;64.37
77537;BME280;67783;51.656;16.106;2023-03-31T18:37:43;99821.25;;;13.41;64.58
77537;BME280;67783;51.656;16.106;2023-03-31T18:40:49;99817.45;;;13.34;66.73
77537;BME280;67783;51.656;16.106;2023-03-31T18:43:52;99816.23;;;13.28;64.50
77537;BME280;67783;51.656;16.106;2023-03-31T18:46:55;99821.65;;;13.19;65.29
77537;BME280;67783;51.656;16.106;2023-03-31T18:49:57;99828.47;;;13.13;64.74
77537;BME280;67783;51.656;16.106;2023-03-31T18:52:59;99824.79;;;13.05;65.30
77537;BME280;67783;51.656;16.106;2023-03-31T18:56:08;99821.18;;;12.96;67.28
77537;BME280;67783;51.656;16.106;2023-03-31T18:59:10;99819.91;;;12.90;65.24
77537;BME280;67783;51.656;16.106;2023-03-31T19:02:14;99828.87;;;12.81;66.39
77537;BME280;67783;51.656;16.106;2023-03-31T19:05:18;99827.16;;;12.80;65.44
77537;BME280;67783;51.656;16.106;2023-03-31T19:08:20;99838.23;;;12.77;65.94
77537;BME280;67783;51.656;16.106;2023-03-31T19:11:29;99833.69;;;12.78;68.33
77537;BME280;67783;51.656;16.106;2023-03-31T19:14:31;99831.69;;;12.80;65.68